Crystal Symphony — C6MY5 — position and weather

sailwx.info

Track history (hours):
 
Tides and Currents Weather Stations Pressure Air Temp Water Temp Dewpoint Dewpoint Depression Visibility Wind Speed Wind Dir Waves Ship Positions

Crystal Symphony

Operator: Crystal Cruises

Last reported at 2019-Dec-02 03:03 UTC. Time now 2019-Dec-15 11:38 UTC.
Position N 26°09' W 079°17'.
Warning: this ship's position is 13 days out of date.

Length 238 m; draft 8 m.

Type: Ship. MMSI: 309168000.

Date/timePositionNaut miles runAvg speedWind from/ knotsBaromVisibWave heightAir tempDewpointWater temp
2019-Dec-02 03:03N 26°09' W 079°17'2617.1
2019-Dec-02 01:30N 25°56' W 079°43'2613.1
2019-Dec-01 23:30N 25°46' W 080°10'1 0.2
2019-Dec-01 19:58N 25°46' W 080°11'0 0.0
2019-Dec-01 18:28N 25°46' W 080°11'0 0.0
2019-Dec-01 16:30N 25°46' W 080°11'0 0.0
2019-Dec-01 16:00N 25°46' W 080°11'0 0.0
2019-Dec-01 13:59N 25°46' W 080°11'0 0.0
2019-Dec-01 12:55N 25°46' W 080°11'0 0.0
2019-Dec-01 11:49N 25°46' W 080°11'0 0.0
2019-Dec-01 11:15N 25°46' W 080°11'20 7.2
2019-Dec-01 08:30N 25°33' W 079°54'230 7.8
2019-Nov-30 03:00N 23°24' W 083°24'271 8.4 090 / 151017.510.8 26.026.0
2019-Nov-28 18:49N 19°18' W 081°23'0 0.0
2019-Nov-28 16:02N 19°18' W 081°23'  
2019-Nov-26 04:00N 22°54' W 072°36'40816.3 270 / 61012.5 5.4 25.0
2019-Nov-25 03:00N 26°06' W 079°12'3417.2 360 / 91012.5 5.4 25.022.0
2019-Nov-25 01:00N 25°54' W 079°48'22 6.3
2019-Nov-24 21:30N 25°46' W 080°11'0 0.0
2019-Nov-24 20:59N 25°46' W 080°11'0 0.0
2019-Nov-24 19:28N 25°46' W 080°11'0 0.0
2019-Nov-24 17:30N 25°46' W 080°11'0 0.0
2019-Nov-24 17:00N 25°46' W 080°11'0 0.0
2019-Nov-24 14:29N 25°46' W 080°11'0 0.0
2019-Nov-24 12:28N 25°46' W 080°11'0 0.0
2019-Nov-24 11:58N 25°46' W 080°11'26 7.4
2019-Nov-24 08:30N 25°25' W 079°55'  
Track history (hours):
 
Tides and Currents Weather Stations Pressure Air Temp Water Temp Dewpoint Dewpoint Depression Visibility Wind Speed Wind Dir Waves Ship Positions

Crystal Symphony

Operator: Crystal Cruises

Last reported at 2019-Dec-02 03:03 UTC. Time now 2019-Dec-15 11:38 UTC.
Position N 26°09' W 079°17'.
Warning: this ship's position is 13 days out of date.

Length 238 m; draft 8 m.

Type: Ship. MMSI: 309168000.

Date/timePositionNaut miles runAvg speedWind from/ knotsBaromVisibWave heightAir tempDewpointWater temp
2019-Dec-02 03:03N 26°09' W 079°17'2617.1
2019-Dec-02 01:30N 25°56' W 079°43'2613.1
2019-Dec-01 23:30N 25°46' W 080°10'1 0.2
2019-Dec-01 19:58N 25°46' W 080°11'0 0.0
2019-Dec-01 18:28N 25°46' W 080°11'0 0.0
2019-Dec-01 16:30N 25°46' W 080°11'0 0.0
2019-Dec-01 16:00N 25°46' W 080°11'0 0.0
2019-Dec-01 13:59N 25°46' W 080°11'0 0.0
2019-Dec-01 12:55N 25°46' W 080°11'0 0.0
2019-Dec-01 11:49N 25°46' W 080°11'0 0.0
2019-Dec-01 11:15N 25°46' W 080°11'20 7.2
2019-Dec-01 08:30N 25°33' W 079°54'230 7.8
2019-Nov-30 03:00N 23°24' W 083°24'271 8.4 090 / 151017.510.8 26.026.0
2019-Nov-28 18:49N 19°18' W 081°23'0 0.0
2019-Nov-28 16:02N 19°18' W 081°23'  
2019-Nov-26 04:00N 22°54' W 072°36'40816.3 270 / 61012.5 5.4 25.0
2019-Nov-25 03:00N 26°06' W 079°12'3417.2 360 / 91012.5 5.4 25.022.0
2019-Nov-25 01:00N 25°54' W 079°48'22 6.3
2019-Nov-24 21:30N 25°46' W 080°11'0 0.0
2019-Nov-24 20:59N 25°46' W 080°11'0 0.0
2019-Nov-24 19:28N 25°46' W 080°11'0 0.0
2019-Nov-24 17:30N 25°46' W 080°11'0 0.0
2019-Nov-24 17:00N 25°46' W 080°11'0 0.0
2019-Nov-24 14:29N 25°46' W 080°11'0 0.0
2019-Nov-24 12:28N 25°46' W 080°11'0 0.0
2019-Nov-24 11:58N 25°46' W 080°11'26 7.4
2019-Nov-24 08:30N 25°25' W 079°55'  

Dump ship's entire track history